createdAt,value
2016-11-30T00:00:13.815Z,1027.16
2016-11-30T00:01:13.823Z,1027.21
2016-11-30T00:02:13.830Z,1027.24
2016-11-30T00:03:13.838Z,1027.23
2016-11-30T00:04:13.846Z,1027.23
2016-11-30T00:05:13.853Z,1027.24
2016-11-30T00:06:13.860Z,1027.23
2016-11-30T00:07:13.868Z,1027.2
2016-11-30T00:08:13.926Z,1027.19
2016-11-30T00:09:13.934Z,1027.18
2016-11-30T00:10:13.890Z,1027.18
2016-11-30T00:11:13.899Z,1027.17
2016-11-30T00:12:13.906Z,1027.16
2016-11-30T00:13:13.915Z,1027.15
2016-11-30T00:14:13.922Z,1027.14
2016-11-30T00:15:13.930Z,1027.14
2016-11-30T00:16:13.938Z,1027.15
2016-11-30T00:17:13.945Z,1027.18
2016-11-30T00:18:14.004Z,1027.18
2016-11-30T00:19:13.960Z,1027.17
2016-11-30T00:20:13.968Z,1027.13
2016-11-30T00:21:13.976Z,1027.12
2016-11-30T00:22:14.033Z,1027.09
2016-11-30T00:23:14.041Z,1027.1
2016-11-30T00:24:14.048Z,1027.07
2016-11-30T00:25:14.006Z,1027.13
2016-11-30T00:26:14.015Z,1027.16
2016-11-30T00:27:14.022Z,1027.2
2016-11-30T00:28:14.030Z,1027.16
2016-11-30T00:29:14.088Z,1027.14
2016-11-30T00:30:14.045Z,1026.97
2016-11-30T00:31:14.053Z,1026.86
2016-11-30T00:32:14.060Z,1026.81
2016-11-30T00:33:14.067Z,1026.76
2016-11-30T00:34:14.126Z,1026.69
2016-11-30T00:35:14.084Z,1026.64
2016-11-30T00:36:14.092Z,1026.59
2016-11-30T00:37:14.099Z,1026.6
2016-11-30T00:38:14.108Z,1026.59
2016-11-30T00:39:14.163Z,1026.64
2016-11-30T00:40:14.123Z,1026.66
2016-11-30T00:41:14.180Z,1026.7
2016-11-30T00:42:14.138Z,1026.73
2016-11-30T00:43:14.195Z,1026.74
2016-11-30T00:44:14.154Z,1026.71
2016-11-30T00:45:14.162Z,1026.63
2016-11-30T00:46:14.219Z,1026.56
2016-11-30T00:47:14.177Z,1026.51
2016-11-30T00:48:14.185Z,1026.49
2016-11-30T00:49:14.192Z,1026.39
2016-11-30T00:50:14.199Z,1026.4
2016-11-30T00:51:14.209Z,1026.36
2016-11-30T00:52:14.216Z,1026.23
2016-11-30T00:53:14.223Z,1026.17
2016-11-30T00:54:14.230Z,1026.06
2016-11-30T00:55:14.238Z,1025.94
2016-11-30T00:56:14.246Z,1025.95
2016-11-30T00:57:14.253Z,1025.97
2016-11-30T00:58:14.260Z,1025.98
2016-11-30T00:59:14.269Z,1025.97
2016-11-30T01:00:14.277Z,1026.01
2016-11-30T01:01:14.534Z,1026
2016-11-30T01:02:14.340Z,1025.97
2016-11-30T01:03:14.298Z,1025.92
2016-11-30T01:04:14.305Z,1025.92
2016-11-30T01:05:14.314Z,1025.91
2016-11-30T01:06:14.321Z,1025.89
2016-11-30T01:07:14.381Z,1025.86
2016-11-30T01:08:14.386Z,1025.96
2016-11-30T01:09:14.344Z,1025.96
2016-11-30T01:10:14.354Z,1025.94
2016-11-30T01:11:14.361Z,1025.93
2016-11-30T01:12:14.917Z,1025.97
2016-11-30T01:13:14.375Z,1026.01
2016-11-30T01:14:14.381Z,1026.02
2016-11-30T01:15:14.389Z,1026.1
2016-11-30T01:16:14.446Z,1026.13
2016-11-30T01:17:14.405Z,1026.25
2016-11-30T01:18:14.414Z,1026.3
2016-11-30T01:19:14.419Z,1026.39
2016-11-30T01:20:14.425Z,1026.41
2016-11-30T01:21:14.484Z,1026.48
2016-11-30T01:22:14.442Z,1026.5
2016-11-30T01:23:15.301Z,1026.53
2016-11-30T01:24:14.458Z,1026.52
2016-11-30T01:25:14.464Z,1026.54
2016-11-30T01:26:14.471Z,1026.6
2016-11-30T01:27:14.530Z,1026.67
2016-11-30T01:28:14.487Z,1026.66
2016-11-30T01:29:14.495Z,1026.61
2016-11-30T01:30:14.502Z,1026.58
2016-11-30T01:31:14.509Z,1026.48
2016-11-30T01:32:14.518Z,1026.39
2016-11-30T01:33:14.526Z,1026.47
2016-11-30T01:34:14.583Z,1026.5
2016-11-30T01:35:14.540Z,1026.6
2016-11-30T01:36:14.548Z,1026.61
2016-11-30T01:37:14.556Z,1026.63
2016-11-30T01:38:14.563Z,1026.71
2016-11-30T01:39:14.570Z,1026.73
2016-11-30T01:40:14.578Z,1026.77
2016-11-30T01:41:14.584Z,1026.79
2016-11-30T01:42:14.594Z,1026.81
2016-11-30T01:43:14.652Z,1026.83
2016-11-30T01:44:14.659Z,1026.86
2016-11-30T01:45:14.616Z,1026.84
2016-11-30T01:46:14.623Z,1026.91
2016-11-30T01:47:14.631Z,1026.94
2016-11-30T01:48:14.638Z,1026.94
2016-11-30T01:49:14.646Z,1026.98
2016-11-30T01:50:14.653Z,1027.03
2016-11-30T01:51:14.663Z,1027.02
2016-11-30T01:52:14.669Z,1027.04
2016-11-30T01:53:14.677Z,1027.02
2016-11-30T01:54:14.985Z,1027
2016-11-30T01:55:14.745Z,1026.99
2016-11-30T01:56:14.700Z,1026.99
2016-11-30T01:57:14.708Z,1026.97
2016-11-30T01:58:14.716Z,1026.97
2016-11-30T01:59:14.723Z,1026.99
2016-11-30T02:00:14.731Z,1027
2016-11-30T02:01:14.738Z,1027.03
2016-11-30T02:02:14.746Z,1027.01
2016-11-30T02:03:14.807Z,1026.99
2016-11-30T02:04:14.762Z,1026.94
2016-11-30T02:05:15.870Z,1026.95
2016-11-30T02:06:14.778Z,1026.89
2016-11-30T02:07:14.784Z,1026.9
2016-11-30T02:08:14.793Z,1026.91
2016-11-30T02:09:14.800Z,1026.9
2016-11-30T02:10:14.810Z,1026.96
2016-11-30T02:11:14.815Z,1026.87
2016-11-30T02:12:14.823Z,1026.88
2016-11-30T02:13:14.834Z,1026.86
2016-11-30T02:14:14.838Z,1026.83
2016-11-30T02:15:14.845Z,1026.88
2016-11-30T02:16:14.853Z,1026.89
2016-11-30T02:17:14.911Z,1026.88
2016-11-30T02:18:14.869Z,1026.89
2016-11-30T02:19:14.929Z,1026.87
2016-11-30T02:20:14.885Z,1026.86
2016-11-30T02:21:14.892Z,1026.84
2016-11-30T02:22:14.900Z,1026.8
2016-11-30T02:23:14.907Z,1026.84
2016-11-30T02:24:15.215Z,1026.8
2016-11-30T02:25:15.121Z,1026.75
2016-11-30T02:26:14.929Z,1026.74
2016-11-30T02:27:14.987Z,1026.73
2016-11-30T02:28:14.944Z,1026.75
2016-11-30T02:29:14.951Z,1026.78
2016-11-30T02:30:15.009Z,1026.75
2016-11-30T02:31:14.968Z,1026.72
2016-11-30T02:32:15.025Z,1026.72
2016-11-30T02:33:14.981Z,1026.68
2016-11-30T02:34:14.991Z,1026.68
2016-11-30T02:35:14.997Z,1026.64
2016-11-30T02:36:15.556Z,1026.65
2016-11-30T02:37:15.063Z,1026.65
2016-11-30T02:38:15.021Z,1026.63
2016-11-30T02:39:15.028Z,1026.65
2016-11-30T02:40:15.034Z,1026.62
2016-11-30T02:41:15.094Z,1026.63
2016-11-30T02:42:15.051Z,1026.56
2016-11-30T02:43:15.059Z,1026.48
2016-11-30T02:44:15.067Z,1026.43
2016-11-30T02:45:15.123Z,1026.37
2016-11-30T02:46:15.131Z,1026.32
2016-11-30T02:47:16.190Z,1026.32
2016-11-30T02:48:15.147Z,1026.25
2016-11-30T02:49:15.104Z,1026.24
2016-11-30T02:50:15.110Z,1026.21
2016-11-30T02:51:15.167Z,1026.14
2016-11-30T02:52:15.177Z,1026.11
2016-11-30T02:53:15.136Z,1026.09
2016-11-30T02:54:15.192Z,1026.04
2016-11-30T02:55:15.149Z,1026.04
2016-11-30T02:56:15.157Z,1026.04
2016-11-30T02:57:15.166Z,1026.03
2016-11-30T02:58:15.172Z,1026.02
2016-11-30T02:59:15.179Z,1026.02
2016-11-30T03:00:15.187Z,1025.98
2016-11-30T03:01:15.194Z,1025.99
2016-11-30T03:02:15.252Z,1026
2016-11-30T03:03:15.213Z,1025.98
2016-11-30T03:04:15.218Z,1026.03
2016-11-30T03:05:15.226Z,1026.04
2016-11-30T03:06:15.232Z,1026.12
2016-11-30T03:07:15.241Z,1026.15
2016-11-30T03:08:15.248Z,1026.18
2016-11-30T03:09:15.256Z,1026.12
2016-11-30T03:10:15.665Z,1026.13
2016-11-30T03:11:15.272Z,1026.1
2016-11-30T03:12:15.277Z,1026.1
2016-11-30T03:13:15.334Z,1026.06
2016-11-30T03:14:15.343Z,1026.06
2016-11-30T03:15:15.302Z,1026.03
2016-11-30T03:16:15.310Z,1025.98
2016-11-30T03:17:15.367Z,1025.98
2016-11-30T03:18:15.376Z,1025.95
2016-11-30T03:19:15.333Z,1025.94
2016-11-30T03:20:15.340Z,1025.99
2016-11-30T03:21:15.348Z,1025.99
2016-11-30T03:22:15.358Z,1026.07
2016-11-30T03:23:15.363Z,1026.09
2016-11-30T03:24:15.370Z,1026.16
2016-11-30T03:25:15.378Z,1026.2
2016-11-30T03:26:15.386Z,1026.25
2016-11-30T03:27:15.393Z,1026.32
2016-11-30T03:28:15.401Z,1026.36
2016-11-30T03:29:15.459Z,1026.37
2016-11-30T03:30:15.420Z,1026.4
2016-11-30T03:31:15.475Z,1026.36
2016-11-30T03:32:15.438Z,1026.35
2016-11-30T03:33:15.491Z,1026.31
2016-11-30T03:34:15.448Z,1026.37
2016-11-30T03:35:15.456Z,1026.41
2016-11-30T03:36:15.464Z,1026.4
2016-11-30T03:37:15.521Z,1026.49
2016-11-30T03:38:15.478Z,1026.5
2016-11-30T03:39:15.486Z,1026.49
2016-11-30T03:40:15.494Z,1026.51
2016-11-30T03:41:15.502Z,1026.49
2016-11-30T03:42:15.510Z,1026.53
2016-11-30T03:43:15.517Z,1026.57
2016-11-30T03:44:15.975Z,1026.6
2016-11-30T03:45:15.582Z,1026.59
2016-11-30T03:46:15.540Z,1026.56
2016-11-30T03:47:15.550Z,1026.59
2016-11-30T03:48:15.556Z,1026.62
2016-11-30T03:49:15.563Z,1026.65
2016-11-30T03:50:15.570Z,1026.69
2016-11-30T03:51:15.579Z,1026.67
2016-11-30T03:52:15.636Z,1026.65
2016-11-30T03:53:15.644Z,1026.65
2016-11-30T03:54:15.602Z,1026.63
2016-11-30T03:55:16.460Z,1026.6
2016-11-30T03:56:15.616Z,1026.64
2016-11-30T03:57:15.625Z,1026.67
2016-11-30T03:58:15.633Z,1026.67
2016-11-30T03:59:15.689Z,1026.68
2016-11-30T04:00:15.647Z,1026.68
2016-11-30T04:01:15.654Z,1026.66
2016-11-30T04:02:15.662Z,1026.63
2016-11-30T04:03:15.720Z,1026.6
2016-11-30T04:04:15.677Z,1026.54
2016-11-30T04:05:15.736Z,1026.53
2016-11-30T04:06:16.843Z,1026.55
2016-11-30T04:07:15.699Z,1026.54
2016-11-30T04:08:15.756Z,1026.54
2016-11-30T04:09:15.766Z,1026.53
2016-11-30T04:10:15.724Z,1026.54
2016-11-30T04:11:15.731Z,1026.57
2016-11-30T04:12:15.738Z,1026.57
2016-11-30T04:13:15.745Z,1026.56
2016-11-30T04:14:15.753Z,1026.58
2016-11-30T04:15:15.761Z,1026.65
2016-11-30T04:16:15.768Z,1026.65
2016-11-30T04:17:15.777Z,1026.66
2016-11-30T04:18:15.833Z,1026.7
2016-11-30T04:19:15.791Z,1026.7
2016-11-30T04:20:15.849Z,1026.68
2016-11-30T04:21:15.807Z,1026.69
2016-11-30T04:22:15.813Z,1026.7
2016-11-30T04:23:15.821Z,1026.66
2016-11-30T04:24:15.830Z,1026.67
2016-11-30T04:25:15.837Z,1026.67
2016-11-30T04:26:15.843Z,1026.67
2016-11-30T04:27:15.851Z,1026.68
2016-11-30T04:28:15.858Z,1026.68
2016-11-30T04:29:15.867Z,1026.63
2016-11-30T04:30:15.926Z,1026.62
2016-11-30T04:31:15.932Z,1026.6
2016-11-30T04:32:15.941Z,1026.59
2016-11-30T04:33:15.898Z,1026.55
2016-11-30T04:34:15.906Z,1026.57
2016-11-30T04:35:15.913Z,1026.54
2016-11-30T04:36:15.970Z,1026.54
2016-11-30T04:37:16.078Z,1026.55
2016-11-30T04:38:15.985Z,1026.49
2016-11-30T04:39:15.993Z,1026.52
2016-11-30T04:40:15.950Z,1026.57
2016-11-30T04:41:15.958Z,1026.57
2016-11-30T04:42:15.966Z,1026.56
2016-11-30T04:43:15.975Z,1026.57
2016-11-30T04:45:15.989Z,1026.54
2016-11-30T04:46:15.997Z,1026.59
2016-11-30T04:47:16.005Z,1026.6
2016-11-30T04:48:16.512Z,1026.61
2016-11-30T04:49:16.018Z,1026.64
2016-11-30T04:50:16.077Z,1026.69
2016-11-30T04:51:16.035Z,1026.69
2016-11-30T04:52:16.043Z,1026.62
2016-11-30T04:53:16.051Z,1026.61
2016-11-30T04:54:16.057Z,1026.57
2016-11-30T04:55:16.116Z,1026.61
2016-11-30T04:56:16.075Z,1026.59
2016-11-30T04:57:16.133Z,1026.55
2016-11-30T04:58:16.139Z,1026.62
2016-11-30T04:59:17.200Z,1026.61
2016-11-30T05:00:16.152Z,1026.54
2016-11-30T05:01:16.113Z,1026.53
2016-11-30T05:02:16.119Z,1026.51
2016-11-30T05:03:16.127Z,1026.5
2016-11-30T05:04:16.137Z,1026.53
2016-11-30T05:05:16.144Z,1026.54
2016-11-30T05:06:16.149Z,1026.51
2016-11-30T05:07:16.158Z,1026.53
2016-11-30T05:08:16.165Z,1026.5
2016-11-30T05:09:16.171Z,1026.5
2016-11-30T05:10:16.180Z,1026.53
2016-11-30T05:11:16.238Z,1026.43
2016-11-30T05:12:16.196Z,1026.44
2016-11-30T05:13:16.253Z,1026.43
2016-11-30T05:14:16.211Z,1026.44
2016-11-30T05:15:16.219Z,1026.49
2016-11-30T05:16:16.229Z,1026.53
2016-11-30T05:17:16.284Z,1026.53
2016-11-30T05:18:16.271Z,1026.57
2016-11-30T05:19:16.249Z,1026.59
2016-11-30T05:20:16.256Z,1026.51
2016-11-30T05:21:16.264Z,1026.51
2016-11-30T05:22:16.273Z,1026.5
2016-11-30T05:23:16.280Z,1026.51
2016-11-30T05:24:16.336Z,1026.47
2016-11-30T05:25:16.294Z,1026.54
2016-11-30T05:26:16.303Z,1026.54
2016-11-30T05:27:16.310Z,1026.51
2016-11-30T05:28:16.368Z,1026.56
2016-11-30T05:29:16.327Z,1026.5
2016-11-30T05:30:16.334Z,1026.51
2016-11-30T05:31:16.341Z,1026.53
2016-11-30T05:32:16.349Z,1026.47
2016-11-30T05:33:16.356Z,1026.48
2016-11-30T05:34:16.415Z,1026.44
2016-11-30T05:35:16.371Z,1026.49
2016-11-30T05:36:16.379Z,1026.44
2016-11-30T05:37:16.386Z,1026.45
2016-11-30T05:38:16.396Z,1026.51
2016-11-30T05:39:16.452Z,1026.51
2016-11-30T05:40:16.461Z,1026.52
2016-11-30T05:41:16.419Z,1026.53
2016-11-30T05:42:16.475Z,1026.57
2016-11-30T05:43:16.432Z,1026.61
2016-11-30T05:45:16.450Z,1026.67
2016-11-30T05:46:16.455Z,1026.69
2016-11-30T05:47:16.464Z,1026.7
2016-11-30T05:48:16.470Z,1026.71
2016-11-30T05:49:16.478Z,1026.67
2016-11-30T05:50:16.536Z,1026.69
2016-11-30T05:51:16.494Z,1026.67
2016-11-30T05:52:16.502Z,1026.65
2016-11-30T05:53:16.509Z,1026.67
2016-11-30T05:54:16.517Z,1026.63
2016-11-30T05:55:16.524Z,1026.67
2016-11-30T05:56:16.782Z,1026.68
2016-11-30T05:57:16.539Z,1026.65
2016-11-30T05:58:16.548Z,1026.61
2016-11-30T05:59:16.605Z,1026.58
2016-11-30T06:00:16.562Z,1026.56
2016-11-30T06:01:16.571Z,1026.55
2016-11-30T06:02:16.578Z,1026.55
2016-11-30T06:03:16.585Z,1026.53
2016-11-30T06:04:16.591Z,1026.59
2016-11-30T06:05:16.602Z,1026.61
2016-11-30T06:06:16.609Z,1026.66
2016-11-30T06:07:17.317Z,1026.65
2016-11-30T06:08:16.623Z,1026.69
2016-11-30T06:09:16.681Z,1026.71
2016-11-30T06:10:16.639Z,1026.72
2016-11-30T06:11:16.646Z,1026.71
2016-11-30T06:12:16.654Z,1026.68
2016-11-30T06:13:16.662Z,1026.71
2016-11-30T06:15:16.727Z,1026.71
2016-11-30T06:16:16.684Z,1026.71
2016-11-30T06:17:16.742Z,1026.74
2016-11-30T06:18:17.651Z,1026.75
2016-11-30T06:19:16.707Z,1026.77
2016-11-30T06:20:16.766Z,1026.84
2016-11-30T06:21:16.723Z,1026.87
2016-11-30T06:22:16.731Z,1026.84
2016-11-30T06:23:16.738Z,1026.83
2016-11-30T06:24:16.746Z,1026.83
2016-11-30T06:25:16.754Z,1026.81
2016-11-30T06:26:16.762Z,1026.85
2016-11-30T06:27:16.770Z,1026.87
2016-11-30T06:28:16.778Z,1026.86
2016-11-30T06:29:16.786Z,1026.87
2016-11-30T06:30:16.793Z,1026.91
2016-11-30T06:31:16.803Z,1026.94
2016-11-30T06:32:16.859Z,1026.96
2016-11-30T06:33:16.816Z,1026.99
2016-11-30T06:34:16.825Z,1027.01
2016-11-30T06:35:16.931Z,1027.01
2016-11-30T06:36:16.839Z,1027.05
2016-11-30T06:37:16.845Z,1027.03
2016-11-30T06:38:17.605Z,1027.09
2016-11-30T06:39:16.913Z,1027.06
2016-11-30T06:40:16.920Z,1027.05
2016-11-30T06:41:16.877Z,1027.05
2016-11-30T06:42:16.885Z,1027.05
2016-11-30T06:43:16.943Z,1027.1
2016-11-30T06:45:16.908Z,1027.09
2016-11-30T06:46:16.917Z,1027.07
2016-11-30T06:47:16.923Z,1027.07
2016-11-30T06:48:16.931Z,1026.98
2016-11-30T06:49:18.024Z,1027.06
2016-11-30T06:50:16.996Z,1027.04
2016-11-30T06:51:16.954Z,1027.04
2016-11-30T06:52:16.961Z,1027.01
2016-11-30T06:53:17.020Z,1026.99
2016-11-30T06:54:17.027Z,1027.02
2016-11-30T06:55:17.035Z,1027.03
2016-11-30T06:56:16.993Z,1027.02
2016-11-30T06:57:17.001Z,1027.03
2016-11-30T06:58:17.058Z,1027.03
2016-11-30T06:59:17.015Z,1027.01
2016-11-30T07:00:17.023Z,1027.02
2016-11-30T07:01:17.030Z,1027.05
2016-11-30T07:02:17.038Z,1027.06
2016-11-30T07:03:17.046Z,1027.06
2016-11-30T07:04:17.054Z,1027.11
2016-11-30T07:05:17.112Z,1027.16
2016-11-30T07:06:17.070Z,1027.17
2016-11-30T07:07:17.128Z,1027.22
2016-11-30T07:08:17.085Z,1027.22
2016-11-30T07:09:17.641Z,1027.24
2016-11-30T07:10:17.098Z,1027.28
2016-11-30T07:11:17.107Z,1027.3
2016-11-30T07:12:17.115Z,1027.27
2016-11-30T07:13:17.122Z,1027.25
2016-11-30T07:14:17.131Z,1027.18
2016-11-30T07:15:17.188Z,1027.21
2016-11-30T07:16:17.147Z,1027.19
2016-11-30T07:17:17.152Z,1027.18
2016-11-30T07:18:17.209Z,1027.19
2016-11-30T07:19:17.167Z,1027.2
2016-11-30T07:20:18.282Z,1027.21
2016-11-30T07:21:17.182Z,1027.2
2016-11-30T07:22:17.190Z,1027.17
2016-11-30T07:23:17.198Z,1027.19
2016-11-30T07:24:17.205Z,1027.21
2016-11-30T07:25:17.215Z,1027.25
2016-11-30T07:26:17.222Z,1027.2
2016-11-30T07:27:17.230Z,1027.29
2016-11-30T07:28:17.285Z,1027.26
2016-11-30T07:29:17.244Z,1027.24
2016-11-30T07:30:17.302Z,1027.24
2016-11-30T07:31:17.260Z,1027.26
2016-11-30T07:32:17.267Z,1027.25
2016-11-30T07:33:17.275Z,1027.26
2016-11-30T07:34:17.283Z,1027.27
2016-11-30T07:35:17.290Z,1027.27
2016-11-30T07:36:17.348Z,1027.26
2016-11-30T07:37:17.357Z,1027.25
2016-11-30T07:38:17.313Z,1027.23
2016-11-30T07:39:17.320Z,1027.26
2016-11-30T07:40:17.328Z,1027.32
2016-11-30T07:41:17.335Z,1027.29
2016-11-30T07:42:17.344Z,1027.31
2016-11-30T07:43:17.402Z,1027.26
2016-11-30T07:44:19.711Z,1027.25
2016-11-30T07:45:17.382Z,1027.23
2016-11-30T07:46:17.424Z,1027.24
2016-11-30T07:47:17.435Z,1027.23
2016-11-30T07:48:17.392Z,1027.21
2016-11-30T07:49:17.398Z,1027.23
2016-11-30T07:50:17.420Z,1027.28
2016-11-30T07:51:17.414Z,1027.21
2016-11-30T07:52:17.424Z,1027.21
2016-11-30T07:53:17.480Z,1027.17
2016-11-30T07:54:17.437Z,1027.14
2016-11-30T07:55:17.494Z,1027.16
2016-11-30T07:56:17.454Z,1027.1
2016-11-30T07:57:17.464Z,1027.13
2016-11-30T07:58:17.468Z,1027.12
2016-11-30T07:59:17.477Z,1027.11
2016-11-30T08:00:17.535Z,1027.17
2016-11-30T08:01:17.497Z,1027.16
2016-11-30T08:02:17.502Z,1027.25
2016-11-30T08:03:17.509Z,1027.21
2016-11-30T08:04:17.517Z,1027.17
2016-11-30T08:05:17.524Z,1027.19
2016-11-30T08:06:17.582Z,1027.17
2016-11-30T08:07:17.539Z,1027.19
2016-11-30T08:08:17.545Z,1027.19
2016-11-30T08:09:17.567Z,1027.08
2016-11-30T08:10:17.614Z,1027.06
2016-11-30T08:11:17.571Z,1027
2016-11-30T08:12:17.579Z,1026.97
2016-11-30T08:13:17.590Z,1026.94
2016-11-30T08:14:17.595Z,1026.89
2016-11-30T08:15:17.603Z,1026.92
2016-11-30T08:16:17.610Z,1026.88
2016-11-30T08:17:17.618Z,1026.87
2016-11-30T08:18:17.677Z,1026.93
2016-11-30T08:19:17.634Z,1026.92
2016-11-30T08:20:17.642Z,1026.95
2016-11-30T08:21:17.650Z,1026.94
2016-11-30T08:22:17.658Z,1026.98
2016-11-30T08:23:17.665Z,1027.01
2016-11-30T08:24:17.723Z,1027.05
2016-11-30T08:25:17.681Z,1027.07
2016-11-30T08:26:17.689Z,1027.12
2016-11-30T08:27:17.695Z,1027.19
2016-11-30T08:28:17.855Z,1027.19
2016-11-30T08:29:17.713Z,1027.22
2016-11-30T08:30:17.720Z,1027.22
2016-11-30T08:31:17.728Z,1027.21
2016-11-30T08:32:17.736Z,1027.23
2016-11-30T08:33:17.744Z,1027.13
2016-11-30T08:34:17.754Z,1027.11
2016-11-30T08:35:17.809Z,1027.1
2016-11-30T08:36:17.769Z,1027.09
2016-11-30T08:37:17.776Z,1027.05
2016-11-30T08:38:17.783Z,1027.08
2016-11-30T08:39:18.247Z,1027.01
2016-11-30T08:40:17.802Z,1027.05
2016-11-30T08:41:17.859Z,1027.1
2016-11-30T08:42:17.816Z,1027.1
2016-11-30T08:43:17.825Z,1027.12
2016-11-30T08:44:17.834Z,1027.14
2016-11-30T08:45:17.891Z,1027.16
2016-11-30T08:46:17.850Z,1027.16
2016-11-30T08:47:17.859Z,1027.16
2016-11-30T08:48:17.867Z,1027.16
2016-11-30T08:49:17.874Z,1027.12
2016-11-30T08:50:18.734Z,1027.14
2016-11-30T08:51:17.892Z,1027.15
2016-11-30T08:52:17.948Z,1027.15
2016-11-30T08:53:17.908Z,1027.15
2016-11-30T08:54:17.916Z,1027.15
2016-11-30T08:55:17.976Z,1027.09
2016-11-30T08:56:17.932Z,1027.07
2016-11-30T08:57:17.942Z,1027.04
2016-11-30T08:58:17.999Z,1027.15
2016-11-30T08:59:17.957Z,1027.11
2016-11-30T09:00:17.966Z,1027.11
2016-11-30T09:01:18.025Z,1027.12
2016-11-30T09:02:17.983Z,1027.17
2016-11-30T09:03:17.991Z,1027.13
2016-11-30T09:04:18.000Z,1027.09
2016-11-30T09:05:18.007Z,1027.09
2016-11-30T09:06:18.016Z,1027.07
2016-11-30T09:07:18.024Z,1027.08
2016-11-30T09:08:18.032Z,1027.04
2016-11-30T09:09:18.041Z,1027.03
2016-11-30T09:10:18.048Z,1027.03
2016-11-30T09:11:18.057Z,1026.99
2016-11-30T09:12:18.516Z,1027.01
2016-11-30T09:13:18.125Z,1026.96
2016-11-30T09:14:18.132Z,1026.93
2016-11-30T09:15:18.792Z,1026.86
2016-11-30T09:16:18.099Z,1026.89
2016-11-30T09:17:18.108Z,1026.85
2016-11-30T09:18:18.114Z,1026.93
2016-11-30T09:19:18.123Z,1026.89
2016-11-30T09:20:18.182Z,1026.87
2016-11-30T09:21:18.138Z,1026.89
2016-11-30T09:22:18.149Z,1026.92
2016-11-30T09:23:18.156Z,1026.96
2016-11-30T09:24:18.214Z,1026.95
2016-11-30T09:25:18.172Z,1027.02
2016-11-30T09:27:18.189Z,1027.03
2016-11-30T09:28:18.198Z,1026.98
2016-11-30T09:29:18.205Z,1027.02
2016-11-30T09:30:18.214Z,1026.95
2016-11-30T09:31:18.222Z,1026.94
2016-11-30T09:32:18.230Z,1026.95
2016-11-30T09:33:18.239Z,1026.97
2016-11-30T09:34:18.248Z,1026.97
2016-11-30T09:35:18.255Z,1026.95
2016-11-30T09:36:18.264Z,1026.99
2016-11-30T09:37:18.271Z,1026.99
2016-11-30T09:38:18.331Z,1027.01
2016-11-30T09:39:18.289Z,1027.06
2016-11-30T09:40:18.297Z,1027.05
2016-11-30T09:41:18.357Z,1027.03
2016-11-30T09:42:18.364Z,1027.03
2016-11-30T09:43:18.324Z,1026.99
2016-11-30T09:45:18.339Z,1026.94
2016-11-30T09:46:18.349Z,1026.94
2016-11-30T09:47:18.355Z,1026.97
2016-11-30T09:48:18.365Z,1026.9
2016-11-30T09:49:18.373Z,1026.89
2016-11-30T09:50:18.383Z,1026.87
2016-11-30T09:51:18.391Z,1026.96
2016-11-30T09:52:18.399Z,1026.93
2016-11-30T09:53:18.458Z,1026.9
2016-11-30T09:54:18.416Z,1026.82
2016-11-30T09:55:18.424Z,1026.8
2016-11-30T09:56:18.433Z,1026.8
2016-11-30T09:57:18.442Z,1026.79
2016-11-30T09:58:19.562Z,1026.74
2016-11-30T09:59:18.460Z,1026.73
2016-11-30T10:00:18.468Z,1026.74
2016-11-30T10:01:18.476Z,1026.74
2016-11-30T10:02:18.485Z,1026.67
2016-11-30T10:03:18.492Z,1026.68
2016-11-30T10:04:18.501Z,1026.76
2016-11-30T10:05:18.510Z,1026.85
2016-11-30T10:06:18.518Z,1026.86
2016-11-30T10:07:18.528Z,1026.88
2016-11-30T10:08:18.587Z,1026.83
2016-11-30T10:09:18.543Z,1026.83
2016-11-30T10:10:18.552Z,1026.82
2016-11-30T10:11:18.710Z,1026.78
2016-11-30T10:12:18.620Z,1026.81
2016-11-30T10:13:18.578Z,1026.84
2016-11-30T10:14:18.636Z,1026.82
2016-11-30T10:15:18.595Z,1026.81
2016-11-30T10:16:18.602Z,1026.8
2016-11-30T10:17:18.661Z,1026.81
2016-11-30T10:18:18.619Z,1026.79
2016-11-30T10:19:18.632Z,1026.78
2016-11-30T10:20:18.635Z,1026.77
2016-11-30T10:21:18.644Z,1026.74
2016-11-30T10:22:18.652Z,1026.77
2016-11-30T10:23:18.709Z,1026.71
2016-11-30T10:24:18.668Z,1026.71
2016-11-30T10:25:18.677Z,1026.69
2016-11-30T10:26:18.735Z,1026.76
2016-11-30T10:27:18.742Z,1026.65
2016-11-30T10:28:18.702Z,1026.62
2016-11-30T10:29:18.760Z,1026.62
2016-11-30T10:30:18.718Z,1026.55
2016-11-30T10:31:18.725Z,1026.54
2016-11-30T10:32:18.733Z,1026.53
2016-11-30T10:33:18.793Z,1026.52
2016-11-30T10:34:18.750Z,1026.53
2016-11-30T10:35:18.758Z,1026.45
2016-11-30T10:36:18.767Z,1026.46
2016-11-30T10:37:18.775Z,1026.37
2016-11-30T10:38:18.783Z,1026.34
2016-11-30T10:39:18.842Z,1026.35
2016-11-30T10:40:18.849Z,1026.34
2016-11-30T10:41:18.808Z,1026.35
2016-11-30T10:42:19.917Z,1026.39
2016-11-30T10:43:18.823Z,1026.41
2016-11-30T10:44:18.832Z,1026.44
2016-11-30T10:45:18.839Z,1026.41
2016-11-30T10:46:18.897Z,1026.41
2016-11-30T10:47:18.906Z,1026.38
2016-11-30T10:48:18.864Z,1026.34
2016-11-30T10:49:18.871Z,1026.33
2016-11-30T10:50:18.879Z,1026.33
2016-11-30T10:51:18.888Z,1026.39
2016-11-30T10:52:18.896Z,1026.37
2016-11-30T10:53:18.903Z,1026.33
2016-11-30T10:54:18.910Z,1026.35
2016-11-30T10:55:19.020Z,1026.34
2016-11-30T10:56:18.927Z,1026.37
2016-11-30T10:57:18.936Z,1026.35
2016-11-30T10:58:18.994Z,1026.31
2016-11-30T10:59:18.952Z,1026.31
2016-11-30T11:00:18.959Z,1026.31
2016-11-30T11:01:18.966Z,1026.29
2016-11-30T11:02:18.975Z,1026.34
2016-11-30T11:03:18.983Z,1026.33
2016-11-30T11:04:18.989Z,1026.34
2016-11-30T11:05:18.998Z,1026.38
2016-11-30T11:06:19.006Z,1026.39
2016-11-30T11:07:19.013Z,1026.5
2016-11-30T11:08:19.021Z,1026.49
2016-11-30T11:09:19.030Z,1026.51
2016-11-30T11:10:19.088Z,1026.49
2016-11-30T11:11:19.045Z,1026.52
2016-11-30T11:12:19.055Z,1026.54
2016-11-30T11:13:19.061Z,1026.54
2016-11-30T11:14:19.068Z,1026.52
2016-11-30T11:15:19.126Z,1026.47
2016-11-30T11:16:19.134Z,1026.51
2016-11-30T11:17:19.392Z,1026.52
2016-11-30T11:18:19.099Z,1026.49
2016-11-30T11:19:19.109Z,1026.52
2016-11-30T11:20:19.115Z,1026.52
2016-11-30T11:21:19.124Z,1026.53
2016-11-30T11:22:19.181Z,1026.49
2016-11-30T11:23:19.140Z,1026.47
2016-11-30T11:24:19.146Z,1026.46
2016-11-30T11:25:19.157Z,1026.45
2016-11-30T11:26:19.213Z,1026.37
2016-11-30T11:27:19.171Z,1026.42
2016-11-30T11:28:19.228Z,1026.44
2016-11-30T11:29:19.185Z,1026.4
2016-11-30T11:30:19.244Z,1026.39
2016-11-30T11:31:19.253Z,1026.37
2016-11-30T11:32:19.261Z,1026.39
2016-11-30T11:33:19.217Z,1026.39
2016-11-30T11:34:19.226Z,1026.36
2016-11-30T11:35:19.235Z,1026.38
2016-11-30T11:36:19.243Z,1026.38
2016-11-30T11:37:19.250Z,1026.34
2016-11-30T11:38:19.259Z,1026.33
2016-11-30T11:39:19.267Z,1026.32
2016-11-30T11:40:19.274Z,1026.33
2016-11-30T11:41:20.233Z,1026.31
2016-11-30T11:42:19.293Z,1026.34
2016-11-30T11:43:19.349Z,1026.29
2016-11-30T11:44:19.307Z,1026.26
2016-11-30T11:45:19.365Z,1026.28
2016-11-30T11:46:19.324Z,1026.29
2016-11-30T11:47:19.332Z,1026.31
2016-11-30T11:48:19.340Z,1026.34
2016-11-30T11:49:19.349Z,1026.31
2016-11-30T11:50:19.356Z,1026.35
2016-11-30T11:51:19.415Z,1026.35
2016-11-30T11:52:19.372Z,1026.33
2016-11-30T11:53:19.380Z,1026.33
2016-11-30T11:54:19.389Z,1026.34
2016-11-30T11:55:19.425Z,1026.3
2016-11-30T11:56:19.404Z,1026.26
2016-11-30T11:57:19.413Z,1026.26
2016-11-30T11:58:19.422Z,1026.22
2016-11-30T11:59:19.430Z,1026.24
2016-11-30T12:00:19.488Z,1026.14
2016-11-30T12:01:19.745Z,1026.04
2016-11-30T12:02:19.454Z,1026.11
2016-11-30T12:03:19.512Z,1026.05
2016-11-30T12:04:19.472Z,1026.03
2016-11-30T12:05:20.781Z,1026.03
2016-11-30T12:06:19.535Z,1026
2016-11-30T12:07:19.544Z,1026.04
2016-11-30T12:08:19.503Z,1026.05
2016-11-30T12:09:19.510Z,1026.05
2016-11-30T12:10:19.569Z,1026.01
2016-11-30T12:11:19.527Z,1025.98
2016-11-30T12:12:19.535Z,1025.96
2016-11-30T12:13:19.543Z,1025.95